Time;durP1;ratioP1;P1;durP2;ratioP2;P2;SDS_P1;SDS_P2;PMS_P1;PMS_P2;Temp;Humidity;BMP_temperature;BMP_pressure;BME280_temperature;BME280_humidity;BME280_pressure;Samples;Min_cycle;Max_cycle;Signal;HPM_P1;HPM_P2
2021/12/15 00:02:11;;;;;;;19.60;9.20;;;6.40;75.40;;;;;;4976092;28;20037;-79
2021/12/15 00:04:37;;;;;;;12.00;8.67;;;6.50;75.30;;;;;;4976519;28;20034;-79
2021/12/15 00:07:02;;;;;;;18.23;9.80;;;6.50;75.00;;;;;;4997004;28;20019;-79
2021/12/15 00:09:29;;;;;;;16.77;9.67;;;6.40;74.80;;;;;;4984358;28;20022;-79
2021/12/15 00:11:55;;;;;;;13.50;9.70;;;6.40;75.00;;;;;;4998849;28;20088;-79
2021/12/15 00:14:21;;;;;;;18.93;10.37;;;6.40;74.90;;;;;;4975330;28;20527;-79
2021/12/15 00:16:49;;;;;;;18.30;9.77;;;6.40;74.80;;;;;;4992374;28;20030;-79
2021/12/15 00:19:15;;;;;;;16.03;9.13;;;6.40;74.80;;;;;;4980413;28;20837;-78
2021/12/15 00:21:41;;;;;;;16.50;9.97;;;6.40;74.60;;;;;;4997423;28;20437;-79
2021/12/15 00:24:08;;;;;;;18.63;9.97;;;6.40;74.60;;;;;;4957086;28;20030;-79
2021/12/15 00:26:36;;;;;;;16.57;9.67;;;6.40;74.70;;;;;;4976595;28;20022;-79
2021/12/15 00:29:05;;;;;;;18.53;10.20;;;6.40;74.60;;;;;;4992286;28;20023;-79
2021/12/15 00:31:32;;;;;;;23.47;10.57;;;6.40;74.60;;;;;;4975833;28;20097;-79
2021/12/15 00:33:59;;;;;;;16.40;10.77;;;6.40;74.60;;;;;;4970868;28;20470;-79
2021/12/15 00:36:25;;;;;;;16.40;10.10;;;6.40;74.60;;;;;;4962319;28;20114;-79
2021/12/15 00:38:51;;;;;;;18.00;10.30;;;6.40;74.60;;;;;;4990751;28;20110;-79
2021/12/15 00:41:17;;;;;;;14.73;9.33;;;6.40;74.70;;;;;;4993406;28;20041;-79
2021/12/15 00:43:43;;;;;;;15.97;8.97;;;6.40;74.70;;;;;;4965531;28;20393;-79
2021/12/15 00:46:09;;;;;;;12.87;8.97;;;6.40;74.50;;;;;;4971097;28;20097;-78
2021/12/15 00:48:35;;;;;;;15.80;9.47;;;6.40;74.40;;;;;;4984371;28;20026;-79
2021/12/15 00:51:01;;;;;;;16.30;10.37;;;6.40;74.40;;;;;;4998215;28;20045;-79
2021/12/15 00:53:27;;;;;;;14.93;9.73;;;6.40;74.40;;;;;;4979024;28;20037;-79
2021/12/15 00:55:53;;;;;;;15.33;10.23;;;6.40;74.30;;;;;;4968581;28;20080;-79
2021/12/15 00:58:19;;;;;;;19.50;10.63;;;6.40;74.40;;;;;;4973356;28;20117;-78
2021/12/15 01:00:49;;;;;;;16.30;9.87;;;6.40;74.30;;;;;;4968468;28;20035;-79
2021/12/15 01:03:16;;;;;;;17.17;10.37;;;6.30;74.40;;;;;;4993436;28;20522;-79
2021/12/15 01:05:46;;;;;;;20.70;9.97;;;6.40;74.50;;;;;;4992026;28;20085;-79
2021/12/15 01:08:17;;;;;;;17.17;10.50;;;6.40;74.60;;;;;;4968476;28;20029;-79
2021/12/15 01:20:04;;;;;;;17.50;9.60;;;6.30;74.50;;;;;;4993392;28;20042;-79
2021/12/15 01:22:00;;;;;;;19.13;11.17;;;6.20;74.40;;;;;;4982171;28;20053;-79
2021/12/15 01:24:26;;;;;;;16.93;9.73;;;6.20;74.60;;;;;;4983131;28;20109;-79
2021/12/15 01:26:52;;;;;;;18.37;9.93;;;6.20;74.70;;;;;;4975853;28;20118;-79
2021/12/15 01:29:18;;;;;;;13.73;9.97;;;6.20;74.60;;;;;;4971415;28;20034;-79
2021/12/15 01:31:43;;;;;;;15.63;10.13;;;6.20;75.00;;;;;;4962970;28;20027;-79
2021/12/15 01:34:10;;;;;;;15.87;10.40;;;6.20;74.60;;;;;;4965204;28;20385;-79
2021/12/15 01:36:35;;;;;;;16.57;10.73;;;6.20;74.50;;;;;;4979520;28;20014;-79
2021/12/15 01:39:03;;;;;;;15.70;10.27;;;6.20;74.60;;;;;;4969799;28;20466;-79
2021/12/15 01:41:29;;;;;;;14.23;10.10;;;6.20;74.60;;;;;;4983192;28;20030;-79
2021/12/15 01:49:25;;;;;;;17.00;9.27;;;6.20;74.70;;;;;;4990848;28;20121;-79
2021/12/15 01:51:51;;;;;;;16.87;10.53;;;6.20;74.60;;;;;;4994386;28;20034;-79
2021/12/15 01:54:18;;;;;;;22.83;9.90;;;6.10;74.60;;;;;;4974066;28;20381;-79
2021/12/15 01:56:44;;;;;;;11.53;8.93;;;6.10;74.70;;;;;;4978842;28;20433;-79
2021/12/15 01:59:12;;;;;;;16.97;9.20;;;6.10;74.90;;;;;;4982546;28;20069;-79
2021/12/15 02:01:38;;;;;;;13.33;8.73;;;6.10;74.80;;;;;;4979338;28;20501;-79
2021/12/15 02:04:04;;;;;;;16.00;8.70;;;6.00;74.60;;;;;;4986277;28;20103;-79
2021/12/15 02:06:30;;;;;;;11.03;8.00;;;5.90;74.80;;;;;;4970819;28;20516;-79
2021/12/15 02:08:56;;;;;;;12.57;8.27;;;5.90;75.00;;;;;;4976655;28;20027;-79
2021/12/15 02:11:24;;;;;;;13.47;9.53;;;5.90;74.80;;;;;;4968728;28;20378;-79
2021/12/15 02:13:50;;;;;;;11.80;7.67;;;5.80;74.80;;;;;;4989762;28;20033;-80
2021/12/15 02:16:15;;;;;;;11.97;8.10;;;5.90;74.90;;;;;;4978438;28;20504;-79
2021/12/15 02:18:43;;;;;;;13.97;8.03;;;5.90;74.90;;;;;;4972767;28;20031;-79
2021/12/15 02:21:16;;;;;;;12.23;9.03;;;5.90;74.90;;;;;;4972298;28;20030;-79
2021/12/15 02:23:48;;;;;;;13.90;10.43;;;5.80;74.90;;;;;;4973344;28;20583;-80
2021/12/15 02:26:20;;;;;;;17.63;10.77;;;5.80;74.90;;;;;;4989038;28;20042;-79
2021/12/15 02:28:51;;;;;;;14.30;9.10;;;5.80;74.90;;;;;;4984350;28;20183;-79
2021/12/15 02:31:54;;;;;;;14.80;9.27;;;5.80;75.00;;;;;;4984354;28;20026;-80
2021/12/15 02:34:31;;;;;;;15.80;9.90;;;5.80;75.00;;;;;;4977566;28;20173;-79
2021/12/15 02:37:18;;;;;;;13.13;8.80;;;5.80;75.00;;;;;;4996328;28;20030;-80
2021/12/15 02:40:06;;;;;;;15.03;8.10;;;5.80;74.80;;;;;;4966362;28;20038;-80
2021/12/15 02:42:40;;;;;;;13.07;8.37;;;5.80;74.70;;;;;;4979755;28;20019;-80
2021/12/15 02:45:11;;;;;;;13.47;8.63;;;5.80;74.60;;;;;;4967478;28;20031;-80
2021/12/15 02:47:38;;;;;;;13.10;8.60;;;5.70;74.50;;;;;;4990099;28;20034;-80
2021/12/15 02:50:07;;;;;;;9.63;7.03;;;5.70;74.70;;;;;;4963578;28;20022;-80
2021/12/15 02:52:34;;;;;;;10.13;7.77;;;5.70;74.70;;;;;;4965229;28;20038;-80
2021/12/15 02:55:00;;;;;;;13.10;7.70;;;5.70;74.90;;;;;;4965241;28;20162;-80
2021/12/15 02:57:26;;;;;;;17.93;8.27;;;5.70;74.70;;;;;;4992560;28;20717;-80
2021/12/15 03:00:01;;;;;;;16.00;8.10;;;5.60;74.60;;;;;;4987119;28;20109;-80
2021/12/15 03:03:01;;;;;;;13.00;8.77;;;5.60;74.60;;;;;;4973521;28;20160;-80
2021/12/15 03:05:46;;;;;;;11.97;7.50;;;5.60;74.90;;;;;;4985523;28;20038;-80
2021/12/15 03:08:14;;;;;;;14.47;9.07;;;5.60;74.80;;;;;;4985337;28;20077;-80
2021/12/15 03:16:11;;;;;;;15.10;8.10;;;5.50;75.00;;;;;;4990517;28;20038;-79
2021/12/15 03:18:38;;;;;;;9.90;7.40;;;5.50;74.80;;;;;;4998798;28;20019;-80
2021/12/15 03:21:11;;;;;;;10.77;7.27;;;5.40;74.70;;;;;;4976379;28;20447;-80
2021/12/15 03:23:48;;;;;;;10.43;7.10;;;5.40;74.70;;;;;;4997827;28;20030;-80
2021/12/15 03:26:23;;;;;;;11.30;7.00;;;5.40;74.80;;;;;;4976248;28;20398;-79
2021/12/15 03:34:47;;;;;;;10.03;6.83;;;5.30;75.00;;;;;;4986461;28;20045;-80
2021/12/15 03:37:23;;;;;;;7.80;5.90;;;5.30;74.90;;;;;;4984363;28;20029;-80
2021/12/15 03:40:15;;;;;;;9.60;6.13;;;5.30;74.90;;;;;;4969392;28;20027;-80
2021/12/15 03:42:50;;;;;;;9.00;5.47;;;5.30;75.00;;;;;;4981559;28;20023;-80
2021/12/15 03:45:25;;;;;;;7.57;5.10;;;5.30;75.00;;;;;;4976299;28;20255;-80
2021/12/15 03:47:53;;;;;;;11.53;5.30;;;5.40;74.80;;;;;;4969534;28;20026;-80
2021/12/15 03:50:20;;;;;;;8.67;5.33;;;5.40;74.50;;;;;;4995747;28;20454;-80
2021/12/15 03:52:49;;;;;;;7.90;5.63;;;5.30;74.50;;;;;;4978721;28;20230;-80
2021/12/15 03:55:20;;;;;;;11.67;6.63;;;5.30;74.50;;;;;;4975785;28;20041;-80
2021/12/15 03:57:46;;;;;;;11.33;7.07;;;5.30;74.50;;;;;;4980959;28;20057;-80
2021/12/15 04:00:16;;;;;;;11.77;7.93;;;5.30;74.50;;;;;;4988295;28;20019;-80
2021/12/15 04:02:43;;;;;;;9.57;7.10;;;5.30;74.40;;;;;;4988807;28;20037;-78
2021/12/15 04:05:12;;;;;;;9.97;6.90;;;5.30;74.50;;;;;;4975185;28;20426;-80
2021/12/15 04:07:38;;;;;;;16.13;6.70;;;5.20;74.30;;;;;;4964037;28;20126;-80
2021/12/15 04:10:08;;;;;;;13.43;7.50;;;5.20;74.50;;;;;;4981160;28;20505;-80
2021/12/15 04:12:33;;;;;;;9.00;6.73;;;5.10;74.50;;;;;;4970810;28;20034;-80
2021/12/15 04:18:04;;;;;;;8.73;5.83;;;5.10;74.60;;;;;;4920968;29;20171;-80
2021/12/15 04:20:35;;;;;;;7.50;5.63;;;5.10;74.50;;;;;;4933592;29;20583;-80
2021/12/15 04:23:03;;;;;;;7.93;5.80;;;5.10;74.40;;;;;;4957398;28;20046;-80
2021/12/15 04:25:32;;;;;;;7.60;4.90;;;5.10;74.40;;;;;;4969083;28;20027;-80
2021/12/15 04:28:05;;;;;;;7.87;5.20;;;5.00;74.40;;;;;;4984087;28;20050;-80
2021/12/15 04:30:35;;;;;;;5.90;3.92;;;5.10;74.50;;;;;;4976445;28;20080;-80
2021/12/15 04:33:12;;;;;;;8.50;4.80;;;5.10;74.40;;;;;;4989072;28;20053;-80
2021/12/15 04:35:38;;;;;;;7.33;4.90;;;5.10;74.20;;;;;;4968631;28;20035;-80
2021/12/15 04:38:05;;;;;;;7.53;5.37;;;5.10;74.10;;;;;;4982553;28;20458;-80
2021/12/15 04:40:31;;;;;;;7.97;5.40;;;5.10;74.20;;;;;;4966094;28;20482;-80
2021/12/15 04:42:59;;;;;;;9.90;6.53;;;5.10;74.00;;;;;;4988599;28;20089;-80
2021/12/15 04:45:25;;;;;;;10.50;6.70;;;5.10;74.10;;;;;;4976963;28;20031;-79
2021/12/15 04:47:55;;;;;;;8.70;6.20;;;5.10;74.30;;;;;;4971942;28;20026;-80
2021/12/15 04:50:24;;;;;;;12.03;7.47;;;5.10;74.30;;;;;;4987211;28;20015;-80
2021/12/15 04:52:51;;;;;;;11.23;6.87;;;5.10;74.30;;;;;;4988169;28;20399;-80
2021/12/15 04:55:17;;;;;;;8.23;6.13;;;5.10;74.20;;;;;;4973832;28;20033;-80
2021/12/15 04:57:43;;;;;;;8.37;5.67;;;5.10;74.30;;;;;;4982150;28;20134;-80
2021/12/15 05:00:15;;;;;;;39.00;8.40;;;5.10;74.20;;;;;;4967432;28;20105;-80
2021/12/15 05:02:41;;;;;;;7.67;5.83;;;5.10;74.20;;;;;;4971394;28;20062;-80
2021/12/15 05:05:08;;;;;;;9.53;5.50;;;5.10;74.30;;;;;;4998290;28;20057;-80
2021/12/15 05:07:34;;;;;;;8.97;5.77;;;5.10;74.50;;;;;;4989193;28;20023;-80
2021/12/15 05:10:00;;;;;;;10.27;6.23;;;5.20;74.30;;;;;;4977577;28;20468;-79
2021/12/15 05:12:27;;;;;;;9.97;6.60;;;5.10;74.20;;;;;;4994129;28;20089;-80
2021/12/15 05:14:53;;;;;;;11.60;8.17;;;5.10;74.70;;;;;;4982587;28;20022;-80
2021/12/15 05:17:19;;;;;;;11.27;8.70;;;5.10;74.80;;;;;;4987687;28;20041;-80
2021/12/15 05:19:46;;;;;;;12.90;8.97;;;5.10;75.00;;;;;;4959201;28;20034;-80
2021/12/15 05:22:13;;;;;;;16.63;8.67;;;5.10;74.90;;;;;;4984195;28;20023;-80
2021/12/15 05:24:40;;;;;;;12.97;9.37;;;5.10;74.70;;;;;;4984471;28;20026;-80
2021/12/15 05:27:14;;;;;;;11.27;8.17;;;5.10;74.70;;;;;;4962909;28;20029;-80
2021/12/15 05:29:42;;;;;;;12.13;7.20;;;5.10;75.00;;;;;;4962971;28;20031;-79
2021/12/15 05:32:09;;;;;;;10.90;7.80;;;5.20;75.00;;;;;;4982683;28;20489;-80
2021/12/15 05:34:36;;;;;;;10.43;7.43;;;5.20;74.90;;;;;;4986946;28;20026;-80
2021/12/15 05:37:04;;;;;;;13.30;8.07;;;5.20;74.90;;;;;;4984875;28;20027;-80
2021/12/15 05:39:30;;;;;;;17.70;8.87;;;5.10;74.90;;;;;;4975515;28;20147;-79
2021/12/15 05:41:56;;;;;;;13.40;8.57;;;5.20;75.10;;;;;;4997303;28;20078;-80
2021/12/15 05:44:23;;;;;;;13.20;8.90;;;5.20;75.00;;;;;;4969522;28;20070;-80
2021/12/15 05:46:51;;;;;;;16.00;11.30;;;5.30;75.00;;;;;;4989808;28;20084;-80
2021/12/15 05:49:16;;;;;;;21.57;11.30;;;5.30;74.80;;;;;;4970227;28;20035;-80
2021/12/15 05:51:42;;;;;;;17.70;10.23;;;5.30;75.00;;;;;;4985335;28;20026;-80
2021/12/15 05:54:09;;;;;;;17.60;11.57;;;5.20;74.90;;;;;;4977051;28;20031;-80
2021/12/15 05:56:35;;;;;;;18.90;11.20;;;5.20;75.10;;;;;;4987052;28;20507;-80
2021/12/15 05:59:02;;;;;;;19.93;12.37;;;5.20;75.10;;;;;;4987061;28;20040;-80
2021/12/15 06:01:28;;;;;;;20.30;10.70;;;5.20;75.10;;;;;;4968851;28;20470;-80
2021/12/15 06:03:55;;;;;;;17.20;12.03;;;5.20;75.20;;;;;;4991508;28;20104;-80
2021/12/15 06:06:21;;;;;;;17.93;12.50;;;5.20;75.10;;;;;;4995610;28;20050;-80
2021/12/15 06:08:47;;;;;;;18.50;11.53;;;5.30;75.20;;;;;;4983604;28;20053;-80
2021/12/15 06:11:13;;;;;;;24.10;13.70;;;5.30;75.20;;;;;;4992788;28;20086;-80
2021/12/15 06:13:39;;;;;;;23.17;14.27;;;5.20;75.00;;;;;;4990779;28;20117;-80
2021/12/15 06:16:05;;;;;;;21.57;14.23;;;5.20;75.40;;;;;;4975889;28;20038;-80
2021/12/15 06:18:32;;;;;;;19.93;14.03;;;5.20;75.50;;;;;;4970884;28;20066;-80
2021/12/15 06:20:59;;;;;;;20.00;13.83;;;5.20;76.20;;;;;;4961900;28;20081;-80
2021/12/15 06:23:25;;;;;;;22.23;14.13;;;5.30;75.50;;;;;;4984067;28;20098;-80
2021/12/15 06:25:55;;;;;;;22.43;14.23;;;5.30;75.30;;;;;;4962080;28;20065;-80
2021/12/15 06:28:23;;;;;;;20.67;14.50;;;5.30;75.30;;;;;;4973346;28;20031;-79
2021/12/15 06:30:49;;;;;;;21.60;14.30;;;5.30;75.40;;;;;;4978810;28;20543;-80
2021/12/15 06:33:16;;;;;;;19.53;13.77;;;5.30;75.30;;;;;;4967539;28;20031;-80
2021/12/15 06:35:52;;;;;;;20.40;14.27;;;5.40;75.40;;;;;;4968510;28;20126;-80
2021/12/15 06:38:18;;;;;;;24.07;14.47;;;5.40;75.30;;;;;;4965945;28;20125;-80
2021/12/15 06:40:44;;;;;;;21.00;15.20;;;5.40;75.20;;;;;;4968838;28;20026;-80
2021/12/15 06:43:10;;;;;;;20.83;13.73;;;5.30;75.30;;;;;;4965190;28;20023;-80
2021/12/15 06:45:46;;;;;;;29.90;17.17;;;5.30;75.20;;;;;;4993010;28;20030;-80
2021/12/15 06:59:08;;;;;;;31.27;18.37;;;5.40;75.10;;;;;;4982754;28;20139;-80
2021/12/15 07:01:34;;;;;;;36.33;24.20;;;5.40;75.20;;;;;;4971801;28;20058;-80
2021/12/15 07:04:00;;;;;;;36.63;24.37;;;5.40;75.40;;;;;;4968635;28;20018;-80
2021/12/15 07:06:25;;;;;;;28.47;20.73;;;5.40;75.20;;;;;;4981648;28;20049;-80
2021/12/15 07:08:51;;;;;;;29.43;18.20;;;5.40;75.30;;;;;;4977523;28;20513;-80
2021/12/15 07:11:17;;;;;;;24.50;17.13;;;5.40;75.40;;;;;;4977158;28;20035;-80
2021/12/15 07:13:43;;;;;;;32.03;19.77;;;5.50;75.40;;;;;;4956031;28;20034;-80
2021/12/15 07:16:10;;;;;;;34.57;21.50;;;5.50;75.20;;;;;;4985469;28;20029;-80
2021/12/15 07:21:22;;;;;;;42.67;24.43;;;5.40;75.70;;;;;;4983083;28;20027;-80
2021/12/15 07:23:50;;;;;;;46.08;25.55;;;5.40;75.60;;;;;;4988193;28;20348;-80
2021/12/15 07:26:16;;;;;;;39.10;25.13;;;5.40;75.70;;;;;;4982741;28;20133;-80
2021/12/15 07:28:42;;;;;;;41.43;24.13;;;5.40;75.70;;;;;;4985936;28;20023;-80
2021/12/15 07:31:09;;;;;;;30.60;19.57;;;5.40;75.70;;;;;;4980175;28;20347;-79
2021/12/15 07:33:35;;;;;;;35.03;22.23;;;5.50;75.70;;;;;;4983434;28;20474;-79
2021/12/15 07:36:02;;;;;;;29.90;19.27;;;5.50;75.50;;;;;;4973533;28;20110;-80
2021/12/15 07:38:28;;;;;;;28.87;18.70;;;5.50;75.40;;;;;;4981808;28;20035;-80
2021/12/15 07:40:54;;;;;;;29.83;20.57;;;5.40;75.40;;;;;;4974054;28;20041;-80
2021/12/15 07:43:26;;;;;;;31.87;18.57;;;5.40;75.50;;;;;;4989907;28;20033;-80
2021/12/15 07:45:58;;;;;;;26.33;17.73;;;5.40;75.80;;;;;;4965180;28;20022;-80
2021/12/15 07:48:27;;;;;;;26.40;18.58;;;5.40;76.00;;;;;;4965099;28;20035;-80
2021/12/15 07:50:57;;;;;;;30.87;19.80;;;5.40;76.00;;;;;;4979064;28;20724;-80
2021/12/15 07:53:23;;;;;;;30.87;18.40;;;5.40;76.10;;;;;;4970067;28;20121;-79
2021/12/15 07:55:49;;;;;;;27.10;18.30;;;5.40;76.20;;;;;;4982111;28;20398;-78
2021/12/15 07:58:18;;;;;;;27.83;19.30;;;5.50;76.10;;;;;;4980030;28;20045;-79
2021/12/15 08:00:45;;;;;;;28.33;16.80;;;5.50;76.20;;;;;;4962256;28;20116;-79
2021/12/15 08:03:11;;;;;;;25.80;16.50;;;5.50;76.30;;;;;;4984672;28;20042;-78
2021/12/15 08:05:40;;;;;;;24.47;17.10;;;5.50;76.10;;;;;;4959723;28;20042;-79
2021/12/15 08:08:06;;;;;;;23.37;16.20;;;5.50;76.00;;;;;;4972657;28;20109;-79
2021/12/15 08:10:33;;;;;;;28.80;17.03;;;5.50;76.00;;;;;;4982777;28;20430;-79
2021/12/15 08:12:58;;;;;;;23.57;15.67;;;5.50;75.90;;;;;;4966116;28;20027;-79
2021/12/15 08:15:24;;;;;;;25.73;17.10;;;5.60;75.80;;;;;;4985138;28;20038;-79
2021/12/15 08:17:53;;;;;;;28.77;16.87;;;5.50;75.90;;;;;;4979579;28;20364;-79
2021/12/15 08:20:25;;;;;;;31.77;16.80;;;5.50;75.80;;;;;;4969581;28;20096;-78
2021/12/15 08:22:50;;;;;;;29.65;18.35;;;5.50;76.10;;;;;;4979785;28;20367;-78
2021/12/15 08:25:17;;;;;;;26.43;17.10;;;5.50;76.10;;;;;;4983525;28;20037;-79
2021/12/15 08:27:45;;;;;;;30.00;18.40;;;5.50;76.20;;;;;;4981382;28;20073;-79
2021/12/15 08:30:19;;;;;;;35.10;20.07;;;5.50;76.80;;;;;;4963533;28;20019;-79
2021/12/15 08:32:46;;;;;;;35.70;21.80;;;5.60;76.20;;;;;;4983084;28;20382;-79
2021/12/15 08:35:23;;;;;;;35.93;21.83;;;5.60;76.00;;;;;;4980757;28;20019;-79
2021/12/15 08:37:49;;;;;;;35.13;20.50;;;5.60;76.10;;;;;;4984681;28;20143;-79
2021/12/15 08:40:19;;;;;;;32.83;19.40;;;5.60;76.00;;;;;;4981040;28;20015;-79
2021/12/15 08:42:45;;;;;;;31.43;18.93;;;5.60;75.90;;;;;;4960945;28;20038;-78
2021/12/15 08:45:11;;;;;;;29.27;17.80;;;5.60;76.00;;;;;;4961729;28;20030;-79
2021/12/15 08:47:37;;;;;;;28.73;17.00;;;5.60;76.00;;;;;;4983795;28;20109;-79
2021/12/15 08:50:07;;;;;;;27.87;17.33;;;5.60;75.90;;;;;;4961276;28;20037;-78
2021/12/15 08:52:33;;;;;;;28.43;17.67;;;5.70;76.00;;;;;;4991586;28;20022;-81
2021/12/15 08:54:59;;;;;;;26.00;17.67;;;5.70;76.00;;;;;;4992780;28;20030;-81
2021/12/15 08:57:25;;;;;;;28.33;18.53;;;5.70;76.00;;;;;;4977162;28;20039;-81
2021/12/15 08:59:51;;;;;;;34.67;18.40;;;5.70;75.90;;;;;;4965308;28;20026;-78
2021/12/15 09:02:17;;;;;;;31.00;19.97;;;5.70;75.90;;;;;;4968182;28;20096;-79
2021/12/15 09:04:43;;;;;;;29.23;17.73;;;5.70;76.00;;;;;;4980447;28;20054;-78
2021/12/15 09:07:08;;;;;;;31.73;18.80;;;5.70;76.00;;;;;;4983479;28;20030;-79
2021/12/15 09:09:35;;;;;;;34.43;20.10;;;5.70;75.90;;;;;;4982244;28;20103;-78
2021/12/15 09:12:01;;;;;;;36.77;22.33;;;5.60;76.00;;;;;;4958794;28;20031;-78
2021/12/15 09:14:27;;;;;;;34.60;19.67;;;5.70;76.00;;;;;;4975176;28;20442;-80
2021/12/15 09:16:55;;;;;;;37.37;20.70;;;5.70;76.10;;;;;;4953153;28;20041;-78
2021/12/15 09:19:21;;;;;;;35.83;20.80;;;5.70;75.90;;;;;;4959133;28;20081;-78
2021/12/15 09:21:51;;;;;;;37.13;22.60;;;5.60;76.00;;;;;;4990280;28;20489;-78
2021/12/15 09:24:18;;;;;;;40.43;23.77;;;5.60;76.10;;;;;;4980515;28;20031;-78
2021/12/15 09:26:43;;;;;;;35.83;21.13;;;5.60;76.20;;;;;;4983067;28;20466;-79
2021/12/15 09:29:09;;;;;;;43.17;22.80;;;5.50;76.50;;;;;;4987248;28;20030;-79
2021/12/15 09:31:36;;;;;;;47.43;24.57;;;5.60;76.60;;;;;;4982718;28;20101;-79
2021/12/15 09:34:05;;;;;;;49.43;27.10;;;5.60;76.40;;;;;;4964591;28;20039;-79
2021/12/15 09:36:32;;;;;;;35.63;20.37;;;5.60;76.50;;;;;;4974643;28;20038;-79
2021/12/15 09:39:07;;;;;;;33.53;20.00;;;5.60;76.50;;;;;;4962010;28;20038;-80
2021/12/15 09:41:34;;;;;;;33.73;20.33;;;5.60;76.30;;;;;;4976224;28;20368;-79
2021/12/15 09:44:06;;;;;;;34.73;20.20;;;5.60;76.50;;;;;;4976609;28;20041;-79
2021/12/15 09:46:42;;;;;;;33.78;20.58;;;5.60;76.40;;;;;;4975344;28;20019;-79
2021/12/15 09:57:45;;;;;;;23.10;16.47;;;5.60;76.10;;;;;;4977403;28;20129;-79
2021/12/15 10:03:02;;;;;;;39.80;22.50;;;5.60;76.60;;;;;;4975067;28;20077;-79
2021/12/15 10:18:47;;;;;;;32.30;21.37;;;5.70;75.80;;;;;;4976607;28;20038;-79
2021/12/15 10:21:26;;;;;;;35.83;22.37;;;5.70;75.80;;;;;;4985141;28;20030;-80
2021/12/15 10:23:53;;;;;;;27.43;18.70;;;5.80;75.80;;;;;;4967416;28;20031;-79
2021/12/15 10:26:21;;;;;;;25.70;18.50;;;5.80;75.80;;;;;;4987003;28;20037;-79
2021/12/15 10:28:52;;;;;;;27.37;18.83;;;5.80;75.70;;;;;;4961505;28;20089;-79
2021/12/15 10:31:20;;;;;;;28.23;19.67;;;5.70;75.80;;;;;;4964605;28;20053;-79
2021/12/15 10:33:58;;;;;;;27.00;18.93;;;5.80;76.10;;;;;;4981151;28;20387;-79
2021/12/15 10:36:32;;;;;;;30.63;20.33;;;5.80;75.90;;;;;;4963660;28;20053;-79
2021/12/15 10:39:07;;;;;;;28.50;19.30;;;5.80;75.80;;;;;;4972126;28;20437;-79
2021/12/15 10:41:43;;;;;;;30.17;19.60;;;5.80;75.90;;;;;;4979106;28;20085;-80
2021/12/15 10:44:15;;;;;;;32.10;20.67;;;5.80;76.00;;;;;;4957548;28;20031;-79
2021/12/15 10:46:50;;;;;;;;;;;5.80;75.80;;;;;;4991876;28;20037;-79
2021/12/15 10:49:26;;;;;;;33.27;21.53;;;5.80;75.60;;;;;;4965317;28;19948;-79
2021/12/15 10:51:59;;;;;;;35.27;21.20;;;5.80;75.80;;;;;;4982510;28;20041;-79
2021/12/15 10:54:25;;;;;;;35.40;22.27;;;5.90;75.80;;;;;;4989097;28;20110;-79
2021/12/15 10:56:56;;;;;;;37.00;24.33;;;5.90;75.90;;;;;;4985110;28;20118;-79
2021/12/15 10:59:28;;;;;;;35.50;23.97;;;5.90;75.90;;;;;;4967479;28;20938;-79
2021/12/15 11:02:01;;;;;;;34.95;23.17;;;5.90;75.90;;;;;;4978107;28;20121;-79
2021/12/15 11:04:40;;;;;;;29.92;20.58;;;6.00;76.00;;;;;;4976107;28;20042;-79
2021/12/15 11:07:28;;;;;;;33.03;22.07;;;6.00;76.00;;;;;;4987077;28;20483;-80
2021/12/15 11:09:59;;;;;;;36.43;24.20;;;6.10;75.80;;;;;;4965659;28;20023;-79
2021/12/15 11:12:28;;;;;;;34.37;23.47;;;6.00;75.60;;;;;;4958924;28;20023;-79
2021/12/15 11:15:00;;;;;;;41.33;23.97;;;6.10;75.80;;;;;;4971810;28;20041;-79
2021/12/15 11:17:33;;;;;;;37.75;24.90;;;6.10;75.90;;;;;;4981227;28;20031;-78
2021/12/15 11:20:04;;;;;;;43.47;26.88;;;6.20;75.90;;;;;;4990375;28;20065;-78
2021/12/15 11:22:47;;;;;;;40.03;25.10;;;6.20;75.90;;;;;;4971179;28;20435;-78
2021/12/15 11:25:44;;;;;;;43.58;26.73;;;6.20;75.60;;;;;;4987887;28;20046;-78
2021/12/15 11:28:14;;;;;;;39.13;24.53;;;6.20;75.70;;;;;;4981930;28;20509;-78
2021/12/15 11:31:00;;;;;;;39.57;25.23;;;6.20;75.70;;;;;;4964920;28;20026;-78
2021/12/15 11:33:39;;;;;;;33.17;22.03;;;6.20;75.70;;;;;;4974992;28;20055;-78
2021/12/15 11:36:32;;;;;;;29.50;20.07;;;6.20;75.80;;;;;;4967096;28;20027;-78
2021/12/15 11:38:57;;;;;;;32.80;20.80;;;6.20;75.70;;;;;;4966580;28;20517;-79
2021/12/15 11:41:39;;;;;;;32.80;21.87;;;6.20;75.60;;;;;;4986873;28;20023;-78
2021/12/15 11:44:13;;;;;;;36.23;24.53;;;6.20;75.60;;;;;;4962281;28;20485;-78
2021/12/15 11:46:43;;;;;;;35.33;23.00;;;6.20;75.80;;;;;;4983316;28;20019;-78
2021/12/15 11:49:22;;;;;;;37.50;23.90;;;6.20;75.80;;;;;;4965542;28;20023;-78
2021/12/15 11:52:03;;;;;;;36.40;23.67;;;6.10;75.60;;;;;;4968328;28;20363;-78
2021/12/15 11:54:34;;;;;;;30.87;20.60;;;6.10;75.80;;;;;;4971715;28;20022;-78
2021/12/15 11:57:24;;;;;;;32.23;21.60;;;6.00;76.00;;;;;;4988217;28;20117;-78
2021/12/15 11:59:53;;;;;;;35.03;21.40;;;6.10;75.90;;;;;;4981111;28;20037;-78
2021/12/15 12:02:22;;;;;;;31.83;22.40;;;6.10;75.90;;;;;;4977922;28;20034;-78
2021/12/15 12:04:54;;;;;;;36.73;23.23;;;6.10;76.00;;;;;;4970848;28;20442;-79
2021/12/15 12:07:26;;;;;;;152.80;58.83;;;6.10;75.90;;;;;;4962497;28;20039;-79
2021/12/15 12:10:23;;;;;;;46.70;29.00;;;6.10;76.00;;;;;;4963059;28;20042;-79
2021/12/15 12:13:04;;;;;;;59.17;36.73;;;6.20;75.90;;;;;;4958231;28;20097;-79
2021/12/15 12:15:33;;;;;;;43.40;27.60;;;6.20;75.50;;;;;;4962304;28;21015;-79
2021/12/15 12:18:04;;;;;;;35.67;23.43;;;6.10;75.80;;;;;;4961228;28;20030;-79
2021/12/15 12:20:54;;;;;;;33.67;21.30;;;6.10;75.90;;;;;;4984721;28;20022;-78
2021/12/15 12:23:26;;;;;;;29.07;20.50;;;6.10;75.90;;;;;;4978609;28;20037;-78
2021/12/15 12:25:56;;;;;;;36.63;23.83;;;6.10;75.90;;;;;;4970760;28;20113;-79
2021/12/15 12:28:28;;;;;;;37.90;24.47;;;6.10;75.90;;;;;;4970712;28;20033;-79
2021/12/15 12:31:01;;;;;;;30.60;21.40;;;6.10;75.90;;;;;;4981138;28;20093;-79
2021/12/15 12:33:28;;;;;;;34.37;21.60;;;6.10;75.90;;;;;;4977743;28;20490;-79
2021/12/15 12:36:11;;;;;;;32.83;21.47;;;6.20;76.40;;;;;;4961895;28;20399;-79
2021/12/15 12:38:41;;;;;;;31.83;20.73;;;6.20;75.80;;;;;;4980739;28;20093;-79
2021/12/15 12:41:15;;;;;;;36.10;22.83;;;6.20;75.80;;;;;;4983966;28;20047;-79
2021/12/15 12:43:47;;;;;;;35.13;22.93;;;6.30;75.70;;;;;;4964516;28;20477;-79
2021/12/15 12:46:24;;;;;;;37.45;23.50;;;6.20;75.70;;;;;;4966306;28;20039;-79
2021/12/15 12:59:46;;;;;;;44.53;27.33;;;6.30;75.50;;;;;;4977795;28;20129;-79
2021/12/15 13:04:54;;;;;;;38.27;22.87;;;6.20;75.50;;;;;;4986088;28;20729;-79
2021/12/15 13:07:49;;;;;;;33.30;21.70;;;6.20;75.40;;;;;;4959212;28;20030;-79
2021/12/15 13:10:17;;;;;;;29.37;21.33;;;6.20;75.60;;;;;;4977026;28;20031;-79
2021/12/15 13:12:47;;;;;;;35.23;22.93;;;6.20;75.70;;;;;;4978529;28;20030;-79
2021/12/15 13:15:23;;;;;;;31.23;21.43;;;6.10;75.60;;;;;;4964295;28;20030;-78
2021/12/15 13:18:02;;;;;;;31.40;22.07;;;6.20;75.80;;;;;;4961715;28;20066;-79
2021/12/15 13:20:34;;;;;;;39.20;22.80;;;6.20;75.70;;;;;;4969807;28;20397;-79
2021/12/15 13:23:09;;;;;;;31.10;21.77;;;6.20;75.70;;;;;;4984724;28;20447;-79
2021/12/15 13:28:50;;;;;;;35.90;22.97;;;6.20;75.60;;;;;;4984193;28;20129;-79
2021/12/15 13:31:28;;;;;;;35.07;23.83;;;6.20;75.70;;;;;;4965065;28;20454;-79
2021/12/15 13:34:01;;;;;;;35.53;24.50;;;6.20;75.70;;;;;;4967085;28;20401;-78
2021/12/15 13:36:33;;;;;;;37.13;23.70;;;6.20;76.20;;;;;;4958544;28;20166;-79
2021/12/15 13:39:07;;;;;;;42.63;24.50;;;6.20;75.60;;;;;;4963495;28;20099;-79
2021/12/15 13:41:44;;;;;;;33.63;22.40;;;6.20;75.60;;;;;;4991129;28;20034;-79
2021/12/15 13:44:15;;;;;;;37.03;23.57;;;6.20;75.60;;;;;;4991397;28;20113;-79
2021/12/15 13:46:54;;;;;;;40.17;26.60;;;6.10;75.50;;;;;;4984443;28;20046;-79
2021/12/15 13:49:49;;;;;;;39.03;26.90;;;6.10;75.70;;;;;;4987857;28;20035;-79
2021/12/15 13:52:34;;;;;;;37.50;26.00;;;6.10;75.80;;;;;;4988277;28;20410;-79
2021/12/15 13:55:19;;;;;;;38.70;28.10;;;6.20;75.80;;;;;;4982078;28;20023;-78
2021/12/15 13:57:50;;;;;;;36.27;25.07;;;6.10;75.60;;;;;;4979590;28;20042;-79
2021/12/15 14:00:34;;;;;;;41.70;24.73;;;6.10;75.70;;;;;;4982147;28;20056;-79
2021/12/15 14:03:06;;;;;;;36.37;22.97;;;6.00;75.60;;;;;;4987479;28;20451;-79
2021/12/15 14:05:51;;;;;;;44.70;26.80;;;6.00;76.00;;;;;;4961400;28;20102;-79
2021/12/15 14:08:31;;;;;;;37.27;25.03;;;6.00;75.80;;;;;;4982021;28;20532;-79
2021/12/15 14:11:22;;;;;;;38.37;25.37;;;6.00;75.90;;;;;;4961418;28;20066;-78
2021/12/15 14:14:20;;;;;;;38.80;25.80;;;6.00;75.90;;;;;;4966117;28;20030;-79
2021/12/15 14:16:50;;;;;;;41.50;27.60;;;6.00;75.80;;;;;;4985040;28;20153;-79
2021/12/15 14:19:22;;;;;;;45.27;27.93;;;6.00;75.90;;;;;;4964717;28;20489;-79
2021/12/15 14:21:50;;;;;;;48.70;31.10;;;6.00;76.20;;;;;;4980707;28;20030;-79